sensor_id;sensor_type;location;lat;lon;timestamp;temperature;humidity
59075;DHT22;44860;53.020;6.738;2023-04-01T00:01:32;10.30;99.90
59075;DHT22;44860;53.020;6.738;2023-04-01T00:03:58;10.30;99.90
59075;DHT22;44860;53.020;6.738;2023-04-01T00:06:24;10.30;99.90
59075;DHT22;44860;53.020;6.738;2023-04-01T00:08:50;10.30;99.90
59075;DHT22;44860;53.020;6.738;2023-04-01T00:11:16;10.30;99.90
59075;DHT22;44860;53.020;6.738;2023-04-01T00:13:42;10.30;99.90
59075;DHT22;44860;53.020;6.738;2023-04-01T00:16:08;10.30;99.90
59075;DHT22;44860;53.020;6.738;2023-04-01T00:18:34;10.30;99.90
59075;DHT22;44860;53.020;6.738;2023-04-01T00:21:00;10.30;99.90
59075;DHT22;44860;53.020;6.738;2023-04-01T00:23:25;10.30;99.90
59075;DHT22;44860;53.020;6.738;2023-04-01T00:25:51;10.30;99.90
59075;DHT22;44860;53.020;6.738;2023-04-01T00:28:18;10.20;99.90
59075;DHT22;44860;53.020;6.738;2023-04-01T00:30:44;10.30;99.90
59075;DHT22;44860;53.020;6.738;2023-04-01T00:33:10;10.30;99.90
59075;DHT22;44860;53.020;6.738;2023-04-01T00:35:36;10.30;99.90
59075;DHT22;44860;53.020;6.738;2023-04-01T00:38:03;10.20;99.90
59075;DHT22;44860;53.020;6.738;2023-04-01T00:40:33;10.20;99.90
59075;DHT22;44860;53.020;6.738;2023-04-01T00:42:59;10.30;99.90
59075;DHT22;44860;53.020;6.738;2023-04-01T00:45:32;10.30;99.90
59075;DHT22;44860;53.020;6.738;2023-04-01T00:48:01;10.30;99.90
59075;DHT22;44860;53.020;6.738;2023-04-01T00:50:28;10.20;99.90
59075;DHT22;44860;53.020;6.738;2023-04-01T00:52:56;10.30;99.90
59075;DHT22;44860;53.020;6.738;2023-04-01T00:55:23;10.30;99.90
59075;DHT22;44860;53.020;6.738;2023-04-01T00:57:50;10.30;99.90
59075;DHT22;44860;53.020;6.738;2023-04-01T01:00:18;10.20;99.90
59075;DHT22;44860;53.020;6.738;2023-04-01T01:02:45;10.20;99.90
59075;DHT22;44860;53.020;6.738;2023-04-01T01:05:14;10.20;99.90
59075;DHT22;44860;53.020;6.738;2023-04-01T01:10:42;10.30;99.90
59075;DHT22;44860;53.020;6.738;2023-04-01T01:16:27;10.20;99.90
59075;DHT22;44860;53.020;6.738;2023-04-01T01:19:21;10.20;99.90
59075;DHT22;44860;53.020;6.738;2023-04-01T01:22:11;10.20;99.90
59075;DHT22;44860;53.020;6.738;2023-04-01T01:27:16;10.20;99.90
59075;DHT22;44860;53.020;6.738;2023-04-01T01:35:49;10.20;99.90
59075;DHT22;44860;53.020;6.738;2023-04-01T01:38:23;10.20;99.90
59075;DHT22;44860;53.020;6.738;2023-04-01T01:40:51;10.20;99.90
59075;DHT22;44860;53.020;6.738;2023-04-01T01:43:22;10.20;99.90
59075;DHT22;44860;53.020;6.738;2023-04-01T01:45:52;10.20;99.90
59075;DHT22;44860;53.020;6.738;2023-04-01T01:48:21;10.20;99.90
59075;DHT22;44860;53.020;6.738;2023-04-01T01:50:49;10.20;99.90
59075;DHT22;44860;53.020;6.738;2023-04-01T01:53:15;10.20;99.90
59075;DHT22;44860;53.020;6.738;2023-04-01T01:55:44;10.20;99.90
59075;DHT22;44860;53.020;6.738;2023-04-01T02:00:50;10.20;99.90
59075;DHT22;44860;53.020;6.738;2023-04-01T02:03:17;10.20;99.90
59075;DHT22;44860;53.020;6.738;2023-04-01T02:05:45;10.20;99.90
59075;DHT22;44860;53.020;6.738;2023-04-01T02:08:43;10.20;99.90
59075;DHT22;44860;53.020;6.738;2023-04-01T02:11:09;10.20;99.90
59075;DHT22;44860;53.020;6.738;2023-04-01T02:13:43;10.20;99.90
59075;DHT22;44860;53.020;6.738;2023-04-01T02:16:31;10.20;99.90
59075;DHT22;44860;53.020;6.738;2023-04-01T02:18:58;10.20;99.90
59075;DHT22;44860;53.020;6.738;2023-04-01T02:21:28;10.20;99.90
59075;DHT22;44860;53.020;6.738;2023-04-01T02:23:56;10.10;99.90
59075;DHT22;44860;53.020;6.738;2023-04-01T02:26:24;10.10;99.90
59075;DHT22;44860;53.020;6.738;2023-04-01T02:28:52;10.20;99.90
59075;DHT22;44860;53.020;6.738;2023-04-01T02:31:18;10.10;99.90
59075;DHT22;44860;53.020;6.738;2023-04-01T02:33:44;10.10;99.90
59075;DHT22;44860;53.020;6.738;2023-04-01T02:36:12;10.20;99.90
59075;DHT22;44860;53.020;6.738;2023-04-01T02:38:39;10.10;99.90
59075;DHT22;44860;53.020;6.738;2023-04-01T02:41:05;10.10;99.90
59075;DHT22;44860;53.020;6.738;2023-04-01T02:43:32;10.10;99.90
59075;DHT22;44860;53.020;6.738;2023-04-01T02:45:57;10.10;99.90
59075;DHT22;44860;53.020;6.738;2023-04-01T02:48:23;10.10;99.90
59075;DHT22;44860;53.020;6.738;2023-04-01T02:50:49;10.10;99.90
59075;DHT22;44860;53.020;6.738;2023-04-01T02:53:15;10.10;99.90
59075;DHT22;44860;53.020;6.738;2023-04-01T02:55:40;10.10;99.90
59075;DHT22;44860;53.020;6.738;2023-04-01T02:58:06;10.10;99.90
59075;DHT22;44860;53.020;6.738;2023-04-01T03:00:32;10.10;99.90
59075;DHT22;44860;53.020;6.738;2023-04-01T03:02:58;10.10;99.90
59075;DHT22;44860;53.020;6.738;2023-04-01T03:05:24;10.10;99.90
59075;DHT22;44860;53.020;6.738;2023-04-01T03:07:49;10.10;99.90
59075;DHT22;44860;53.020;6.738;2023-04-01T03:10:15;10.10;99.90
59075;DHT22;44860;53.020;6.738;2023-04-01T03:12:41;10.10;99.90
59075;DHT22;44860;53.020;6.738;2023-04-01T03:15:08;10.10;99.90
59075;DHT22;44860;53.020;6.738;2023-04-01T03:17:35;10.10;99.90
59075;DHT22;44860;53.020;6.738;2023-04-01T03:20:00;10.10;99.90
59075;DHT22;44860;53.020;6.738;2023-04-01T03:22:26;10.10;99.90
59075;DHT22;44860;53.020;6.738;2023-04-01T03:24:52;10.10;99.90
59075;DHT22;44860;53.020;6.738;2023-04-01T03:27:17;10.10;99.90
59075;DHT22;44860;53.020;6.738;2023-04-01T03:29:43;10.10;99.90
59075;DHT22;44860;53.020;6.738;2023-04-01T03:32:09;10.10;99.90
59075;DHT22;44860;53.020;6.738;2023-04-01T03:34:34;10.10;99.90
59075;DHT22;44860;53.020;6.738;2023-04-01T03:37:00;10.20;99.90
59075;DHT22;44860;53.020;6.738;2023-04-01T03:39:26;10.10;99.90
59075;DHT22;44860;53.020;6.738;2023-04-01T03:41:51;10.20;99.90
59075;DHT22;44860;53.020;6.738;2023-04-01T03:44:17;10.20;99.90
59075;DHT22;44860;53.020;6.738;2023-04-01T03:46:43;10.20;99.90
59075;DHT22;44860;53.020;6.738;2023-04-01T03:49:09;10.20;99.90
59075;DHT22;44860;53.020;6.738;2023-04-01T03:51:42;10.10;99.90
59075;DHT22;44860;53.020;6.738;2023-04-01T03:54:09;10.20;99.90
59075;DHT22;44860;53.020;6.738;2023-04-01T03:56:35;10.20;99.90
59075;DHT22;44860;53.020;6.738;2023-04-01T03:59:03;10.20;99.90
59075;DHT22;44860;53.020;6.738;2023-04-01T04:01:29;10.20;99.90
59075;DHT22;44860;53.020;6.738;2023-04-01T04:03:55;10.20;99.90
59075;DHT22;44860;53.020;6.738;2023-04-01T04:06:22;10.20;99.90
59075;DHT22;44860;53.020;6.738;2023-04-01T04:08:48;10.20;99.90
59075;DHT22;44860;53.020;6.738;2023-04-01T04:11:14;10.10;99.90
59075;DHT22;44860;53.020;6.738;2023-04-01T04:13:40;10.20;99.90
59075;DHT22;44860;53.020;6.738;2023-04-01T04:16:06;10.20;99.90
59075;DHT22;44860;53.020;6.738;2023-04-01T04:18:32;10.20;99.90
59075;DHT22;44860;53.020;6.738;2023-04-01T04:20:58;10.20;99.90
59075;DHT22;44860;53.020;6.738;2023-04-01T04:23:24;10.20;99.90
59075;DHT22;44860;53.020;6.738;2023-04-01T04:26:11;10.20;99.90
59075;DHT22;44860;53.020;6.738;2023-04-01T04:28:37;10.20;99.90
59075;DHT22;44860;53.020;6.738;2023-04-01T04:31:03;10.20;99.90
59075;DHT22;44860;53.020;6.738;2023-04-01T04:33:31;10.20;99.90
59075;DHT22;44860;53.020;6.738;2023-04-01T04:35:58;10.20;99.90
59075;DHT22;44860;53.020;6.738;2023-04-01T04:38:24;10.20;99.90
59075;DHT22;44860;53.020;6.738;2023-04-01T04:40:50;10.20;99.90
59075;DHT22;44860;53.020;6.738;2023-04-01T04:43:16;10.20;99.90
59075;DHT22;44860;53.020;6.738;2023-04-01T04:45:42;10.20;99.90
59075;DHT22;44860;53.020;6.738;2023-04-01T04:48:10;10.20;99.90
59075;DHT22;44860;53.020;6.738;2023-04-01T04:50:36;10.20;99.90
59075;DHT22;44860;53.020;6.738;2023-04-01T04:53:02;10.20;99.90
59075;DHT22;44860;53.020;6.738;2023-04-01T04:55:28;10.20;99.90
59075;DHT22;44860;53.020;6.738;2023-04-01T04:57:53;10.20;99.90
59075;DHT22;44860;53.020;6.738;2023-04-01T05:00:19;10.20;99.90
59075;DHT22;44860;53.020;6.738;2023-04-01T05:02:44;10.20;99.90
59075;DHT22;44860;53.020;6.738;2023-04-01T05:05:10;10.20;99.90
59075;DHT22;44860;53.020;6.738;2023-04-01T05:07:36;10.20;99.90
59075;DHT22;44860;53.020;6.738;2023-04-01T05:10:02;10.20;99.90
59075;DHT22;44860;53.020;6.738;2023-04-01T05:12:28;10.20;99.90
59075;DHT22;44860;53.020;6.738;2023-04-01T05:14:53;10.20;99.90
59075;DHT22;44860;53.020;6.738;2023-04-01T05:17:19;10.20;99.90
59075;DHT22;44860;53.020;6.738;2023-04-01T05:19:45;10.20;99.90
59075;DHT22;44860;53.020;6.738;2023-04-01T05:22:10;10.20;99.90
59075;DHT22;44860;53.020;6.738;2023-04-01T05:24:36;10.20;99.90
59075;DHT22;44860;53.020;6.738;2023-04-01T05:27:02;10.20;99.90
59075;DHT22;44860;53.020;6.738;2023-04-01T05:29:27;10.10;99.90
59075;DHT22;44860;53.020;6.738;2023-04-01T05:31:53;10.10;99.90
59075;DHT22;44860;53.020;6.738;2023-04-01T05:34:19;10.20;99.90
59075;DHT22;44860;53.020;6.738;2023-04-01T05:36:44;10.20;99.90
59075;DHT22;44860;53.020;6.738;2023-04-01T05:39:10;10.20;99.90
59075;DHT22;44860;53.020;6.738;2023-04-01T05:41:37;10.20;99.90
59075;DHT22;44860;53.020;6.738;2023-04-01T05:44:03;10.10;99.90
59075;DHT22;44860;53.020;6.738;2023-04-01T05:46:30;10.10;99.90
59075;DHT22;44860;53.020;6.738;2023-04-01T05:48:56;10.10;99.90
59075;DHT22;44860;53.020;6.738;2023-04-01T05:51:22;10.10;99.90
59075;DHT22;44860;53.020;6.738;2023-04-01T05:53:48;10.10;99.90
59075;DHT22;44860;53.020;6.738;2023-04-01T05:56:13;10.10;99.90
59075;DHT22;44860;53.020;6.738;2023-04-01T05:58:39;10.10;99.90
59075;DHT22;44860;53.020;6.738;2023-04-01T06:01:07;10.10;99.90
59075;DHT22;44860;53.020;6.738;2023-04-01T06:03:33;10.10;99.90
59075;DHT22;44860;53.020;6.738;2023-04-01T06:05:59;10.10;99.90
59075;DHT22;44860;53.020;6.738;2023-04-01T06:08:26;10.10;99.90
59075;DHT22;44860;53.020;6.738;2023-04-01T06:16:04;10.10;99.90
59075;DHT22;44860;53.020;6.738;2023-04-01T06:18:41;10.10;99.90
59075;DHT22;44860;53.020;6.738;2023-04-01T06:21:27;10.10;99.90
59075;DHT22;44860;53.020;6.738;2023-04-01T06:26:39;10.10;99.90
59075;DHT22;44860;53.020;6.738;2023-04-01T06:35:27;10.10;99.90
59075;DHT22;44860;53.020;6.738;2023-04-01T06:41:01;10.10;99.90
59075;DHT22;44860;53.020;6.738;2023-04-01T06:49:09;10.10;99.90
59075;DHT22;44860;53.020;6.738;2023-04-01T06:51:50;10.20;99.90
59075;DHT22;44860;53.020;6.738;2023-04-01T06:54:34;10.10;99.90
59075;DHT22;44860;53.020;6.738;2023-04-01T06:59:55;10.10;99.90
59075;DHT22;44860;53.020;6.738;2023-04-01T07:04:58;10.20;99.90
59075;DHT22;44860;53.020;6.738;2023-04-01T07:07:41;10.20;99.90
59075;DHT22;44860;53.020;6.738;2023-04-01T07:10:12;10.20;99.90
59075;DHT22;44860;53.020;6.738;2023-04-01T07:13:01;10.30;99.90
59075;DHT22;44860;53.020;6.738;2023-04-01T07:15:36;10.30;99.90
59075;DHT22;44860;53.020;6.738;2023-04-01T07:18:09;10.30;99.90
59075;DHT22;44860;53.020;6.738;2023-04-01T07:20:37;10.30;99.90
59075;DHT22;44860;53.020;6.738;2023-04-01T07:23:07;10.30;99.90
59075;DHT22;44860;53.020;6.738;2023-04-01T07:25:43;10.40;99.90
59075;DHT22;44860;53.020;6.738;2023-04-01T07:28:14;10.40;99.90
59075;DHT22;44860;53.020;6.738;2023-04-01T07:33:44;10.40;99.90
59075;DHT22;44860;53.020;6.738;2023-04-01T07:55:13;10.70;99.90
59075;DHT22;44860;53.020;6.738;2023-04-01T07:57:47;10.80;99.90
59075;DHT22;44860;53.020;6.738;2023-04-01T08:00:25;10.80;99.90
59075;DHT22;44860;53.020;6.738;2023-04-01T08:08:43;10.90;99.90
59075;DHT22;44860;53.020;6.738;2023-04-01T08:21:47;11.00;99.90
59075;DHT22;44860;53.020;6.738;2023-04-01T08:24:34;11.00;99.90
59075;DHT22;44860;53.020;6.738;2023-04-01T08:27:06;11.00;99.90
59075;DHT22;44860;53.020;6.738;2023-04-01T08:29:59;11.00;99.90
59075;DHT22;44860;53.020;6.738;2023-04-01T08:32:38;11.00;99.90
59075;DHT22;44860;53.020;6.738;2023-04-01T08:35:28;11.00;99.90
59075;DHT22;44860;53.020;6.738;2023-04-01T08:38:05;11.00;99.90
59075;DHT22;44860;53.020;6.738;2023-04-01T08:43:35;11.00;99.90
59075;DHT22;44860;53.020;6.738;2023-04-01T08:54:44;11.00;99.90
59075;DHT22;44860;53.020;6.738;2023-04-01T09:00:30;11.00;99.90
59075;DHT22;44860;53.020;6.738;2023-04-01T09:03:13;11.00;99.90
59075;DHT22;44860;53.020;6.738;2023-04-01T09:16:55;11.00;99.90
59075;DHT22;44860;53.020;6.738;2023-04-01T09:22:29;11.00;99.90
59075;DHT22;44860;53.020;6.738;2023-04-01T09:25:12;11.10;99.90
59075;DHT22;44860;53.020;6.738;2023-04-01T09:34:10;11.10;99.90
59075;DHT22;44860;53.020;6.738;2023-04-01T09:45:01;11.30;99.90
59075;DHT22;44860;53.020;6.738;2023-04-01T09:48:59;11.30;99.90
59075;DHT22;44860;53.020;6.738;2023-04-01T09:53:48;11.30;99.90
59075;DHT22;44860;53.020;6.738;2023-04-01T09:56:53;11.40;99.90
59075;DHT22;44860;53.020;6.738;2023-04-01T10:13:50;11.40;99.90
59075;DHT22;44860;53.020;6.738;2023-04-01T10:38:01;11.00;99.90
59075;DHT22;44860;53.020;6.738;2023-04-01T10:46:30;10.90;99.90
59075;DHT22;44860;53.020;6.738;2023-04-01T10:52:16;10.90;99.90
59075;DHT22;44860;53.020;6.738;2023-04-01T10:55:14;10.90;99.90
59075;DHT22;44860;53.020;6.738;2023-04-01T11:03:14;10.80;99.90
59075;DHT22;44860;53.020;6.738;2023-04-01T11:11:40;10.80;99.90
59075;DHT22;44860;53.020;6.738;2023-04-01T11:17:23;10.70;99.90
59075;DHT22;44860;53.020;6.738;2023-04-01T11:20:10;10.70;99.90
59075;DHT22;44860;53.020;6.738;2023-04-01T11:31:40;10.60;99.90
59075;DHT22;44860;53.020;6.738;2023-04-01T11:34:21;10.60;99.90
59075;DHT22;44860;53.020;6.738;2023-04-01T11:37:15;10.60;99.90
59075;DHT22;44860;53.020;6.738;2023-04-01T11:42:47;10.60;99.90
59075;DHT22;44860;53.020;6.738;2023-04-01T11:48:37;10.60;99.90
59075;DHT22;44860;53.020;6.738;2023-04-01T11:54:14;10.50;99.90
59075;DHT22;44860;53.020;6.738;2023-04-01T11:59:57;10.50;99.90
59075;DHT22;44860;53.020;6.738;2023-04-01T12:03:16;10.50;99.90
59075;DHT22;44860;53.020;6.738;2023-04-01T12:05:54;10.50;99.90
59075;DHT22;44860;53.020;6.738;2023-04-01T12:09:00;10.50;99.90
59075;DHT22;44860;53.020;6.738;2023-04-01T12:14:42;10.60;99.90
59075;DHT22;44860;53.020;6.738;2023-04-01T12:34:24;10.60;99.90
59075;DHT22;44860;53.020;6.738;2023-04-01T12:45:44;10.60;99.90
59075;DHT22;44860;53.020;6.738;2023-04-01T12:54:17;10.50;99.90
59075;DHT22;44860;53.020;6.738;2023-04-01T13:05:51;10.40;99.90
59075;DHT22;44860;53.020;6.738;2023-04-01T13:08:52;10.40;99.90
59075;DHT22;44860;53.020;6.738;2023-04-01T13:19:50;10.30;99.90
59075;DHT22;44860;53.020;6.738;2023-04-01T13:22:50;10.20;99.90
59075;DHT22;44860;53.020;6.738;2023-04-01T13:28:14;10.20;99.90
59075;DHT22;44860;53.020;6.738;2023-04-01T13:31:02;10.10;99.90
59075;DHT22;44860;53.020;6.738;2023-04-01T13:33:56;10.10;99.90
59075;DHT22;44860;53.020;6.738;2023-04-01T13:44:48;10.00;99.90
59075;DHT22;44860;53.020;6.738;2023-04-01T13:50:25;10.00;99.90
59075;DHT22;44860;53.020;6.738;2023-04-01T13:53:40;9.90;99.90
59075;DHT22;44860;53.020;6.738;2023-04-01T14:01:39;9.80;99.90
59075;DHT22;44860;53.020;6.738;2023-04-01T14:09:48;9.80;99.90
59075;DHT22;44860;53.020;6.738;2023-04-01T14:12:46;9.80;99.90
59075;DHT22;44860;53.020;6.738;2023-04-01T14:32:02;9.70;99.90
59075;DHT22;44860;53.020;6.738;2023-04-01T14:34:55;9.70;99.90
59075;DHT22;44860;53.020;6.738;2023-04-01T14:37:58;9.70;99.90
59075;DHT22;44860;53.020;6.738;2023-04-01T14:48:50;9.60;99.90
59075;DHT22;44860;53.020;6.738;2023-04-01T14:53:59;9.60;99.90
59075;DHT22;44860;53.020;6.738;2023-04-01T14:56:49;9.60;99.90
59075;DHT22;44860;53.020;6.738;2023-04-01T15:01:55;9.50;99.90
59075;DHT22;44860;53.020;6.738;2023-04-01T15:04:41;9.60;99.90
59075;DHT22;44860;53.020;6.738;2023-04-01T15:10:30;9.50;99.90
59075;DHT22;44860;53.020;6.738;2023-04-01T15:16:11;9.50;99.90
59075;DHT22;44860;53.020;6.738;2023-04-01T15:18:53;9.50;99.90
59075;DHT22;44860;53.020;6.738;2023-04-01T15:38:06;9.30;99.90
59075;DHT22;44860;53.020;6.738;2023-04-01T15:51:58;9.30;99.90
59075;DHT22;44860;53.020;6.738;2023-04-01T16:31:14;8.80;99.90
59075;DHT22;44860;53.020;6.738;2023-04-01T16:34:00;8.80;99.90
59075;DHT22;44860;53.020;6.738;2023-04-01T16:36:48;8.70;99.90
59075;DHT22;44860;53.020;6.738;2023-04-01T16:42:16;8.60;99.90
59075;DHT22;44860;53.020;6.738;2023-04-01T16:48:58;8.60;99.90
59075;DHT22;44860;53.020;6.738;2023-04-01T16:51:44;8.50;99.90
59075;DHT22;44860;53.020;6.738;2023-04-01T17:00:03;8.40;99.90
59075;DHT22;44860;53.020;6.738;2023-04-01T17:02:43;8.40;99.90
59075;DHT22;44860;53.020;6.738;2023-04-01T17:05:12;8.40;99.90
59075;DHT22;44860;53.020;6.738;2023-04-01T17:21:53;8.20;99.90
59075;DHT22;44860;53.020;6.738;2023-04-01T17:27:13;8.10;99.90
59075;DHT22;44860;53.020;6.738;2023-04-01T17:30:00;8.10;99.90
59075;DHT22;44860;53.020;6.738;2023-04-01T17:35:29;8.00;99.90
59075;DHT22;44860;53.020;6.738;2023-04-01T17:41:02;8.00;99.90
59075;DHT22;44860;53.020;6.738;2023-04-01T17:43:52;7.90;99.90
59075;DHT22;44860;53.020;6.738;2023-04-01T17:49:01;7.90;99.90
59075;DHT22;44860;53.020;6.738;2023-04-01T17:51:46;7.90;99.90
59075;DHT22;44860;53.020;6.738;2023-04-01T17:54:34;7.90;99.90
59075;DHT22;44860;53.020;6.738;2023-04-01T18:02:54;7.80;99.90
59075;DHT22;44860;53.020;6.738;2023-04-01T18:09:29;7.70;99.90
59075;DHT22;44860;53.020;6.738;2023-04-01T18:17:05;7.60;99.90
59075;DHT22;44860;53.020;6.738;2023-04-01T18:25:05;7.60;99.90
59075;DHT22;44860;53.020;6.738;2023-04-01T18:27:41;7.60;99.90
59075;DHT22;44860;53.020;6.738;2023-04-01T18:30:30;7.50;99.90
59075;DHT22;44860;53.020;6.738;2023-04-01T18:33:02;7.50;99.90
59075;DHT22;44860;53.020;6.738;2023-04-01T18:38:33;7.50;99.90
59075;DHT22;44860;53.020;6.738;2023-04-01T18:49:41;7.40;99.90
59075;DHT22;44860;53.020;6.738;2023-04-01T18:52:24;7.30;99.90
59075;DHT22;44860;53.020;6.738;2023-04-01T18:57:52;7.30;99.90
59075;DHT22;44860;53.020;6.738;2023-04-01T19:00:20;7.30;99.90
59075;DHT22;44860;53.020;6.738;2023-04-01T19:03:10;7.30;99.90
59075;DHT22;44860;53.020;6.738;2023-04-01T19:05:41;7.30;99.90
59075;DHT22;44860;53.020;6.738;2023-04-01T19:10:53;7.20;99.90
59075;DHT22;44860;53.020;6.738;2023-04-01T19:27:03;7.10;99.90
59075;DHT22;44860;53.020;6.738;2023-04-01T19:35:27;7.10;99.90
59075;DHT22;44860;53.020;6.738;2023-04-01T19:40:54;7.00;99.90
59075;DHT22;44860;53.020;6.738;2023-04-01T19:51:57;6.90;99.90
59075;DHT22;44860;53.020;6.738;2023-04-01T19:54:45;6.90;99.90
59075;DHT22;44860;53.020;6.738;2023-04-01T20:00:23;6.90;99.90
59075;DHT22;44860;53.020;6.738;2023-04-01T20:05:32;6.80;99.90
59075;DHT22;44860;53.020;6.738;2023-04-01T20:08:24;6.80;99.90
59075;DHT22;44860;53.020;6.738;2023-04-01T20:11:21;6.80;99.90
59075;DHT22;44860;53.020;6.738;2023-04-01T20:22:16;6.70;99.90
59075;DHT22;44860;53.020;6.738;2023-04-01T20:24:48;6.70;99.90
59075;DHT22;44860;53.020;6.738;2023-04-01T20:27:20;6.70;99.90
59075;DHT22;44860;53.020;6.738;2023-04-01T20:30:19;6.60;99.90
59075;DHT22;44860;53.020;6.738;2023-04-01T20:44:13;6.50;99.90
59075;DHT22;44860;53.020;6.738;2023-04-01T20:57:19;6.50;99.90
59075;DHT22;44860;53.020;6.738;2023-04-01T20:59:50;6.50;99.90
59075;DHT22;44860;53.020;6.738;2023-04-01T21:16:28;6.30;99.90
59075;DHT22;44860;53.020;6.738;2023-04-01T21:19:22;6.30;99.90
59075;DHT22;44860;53.020;6.738;2023-04-01T21:22:27;6.30;99.90
59075;DHT22;44860;53.020;6.738;2023-04-01T21:27:46;6.30;99.90
59075;DHT22;44860;53.020;6.738;2023-04-01T21:30:27;6.30;99.90
59075;DHT22;44860;53.020;6.738;2023-04-01T21:38:42;6.20;99.90
59075;DHT22;44860;53.020;6.738;2023-04-01T21:41:12;6.20;99.90
59075;DHT22;44860;53.020;6.738;2023-04-01T21:54:54;6.20;99.90
59075;DHT22;44860;53.020;6.738;2023-04-01T22:05:49;6.10;99.90
59075;DHT22;44860;53.020;6.738;2023-04-01T22:13:58;6.10;99.90
59075;DHT22;44860;53.020;6.738;2023-04-01T22:16:40;6.00;99.90
59075;DHT22;44860;53.020;6.738;2023-04-01T22:30:17;5.90;99.90
59075;DHT22;44860;53.020;6.738;2023-04-01T22:32:47;5.90;99.90
59075;DHT22;44860;53.020;6.738;2023-04-01T22:35:54;5.80;99.90
59075;DHT22;44860;53.020;6.738;2023-04-01T22:38:46;5.80;99.90
59075;DHT22;44860;53.020;6.738;2023-04-01T22:43:54;5.80;99.90
59075;DHT22;44860;53.020;6.738;2023-04-01T22:49:12;5.80;99.90
59075;DHT22;44860;53.020;6.738;2023-04-01T22:51:56;5.80;99.90
59075;DHT22;44860;53.020;6.738;2023-04-01T22:54:43;5.70;99.90
59075;DHT22;44860;53.020;6.738;2023-04-01T22:57:31;5.80;99.90
59075;DHT22;44860;53.020;6.738;2023-04-01T23:00:10;5.80;99.90
59075;DHT22;44860;53.020;6.738;2023-04-01T23:05:35;5.70;99.90
59075;DHT22;44860;53.020;6.738;2023-04-01T23:10:58;5.70;99.90
59075;DHT22;44860;53.020;6.738;2023-04-01T23:13:33;5.60;99.90
59075;DHT22;44860;53.020;6.738;2023-04-01T23:16:00;5.70;99.90
59075;DHT22;44860;53.020;6.738;2023-04-01T23:18:35;5.70;99.90
59075;DHT22;44860;53.020;6.738;2023-04-01T23:26:36;5.60;99.90
59075;DHT22;44860;53.020;6.738;2023-04-01T23:29:04;5.60;99.90
59075;DHT22;44860;53.020;6.738;2023-04-01T23:31:38;5.50;99.90
59075;DHT22;44860;53.020;6.738;2023-04-01T23:36:43;5.50;99.90
59075;DHT22;44860;53.020;6.738;2023-04-01T23:39:22;5.40;99.90
59075;DHT22;44860;53.020;6.738;2023-04-01T23:41:50;5.40;99.90
59075;DHT22;44860;53.020;6.738;2023-04-01T23:44:17;5.30;99.90
59075;DHT22;44860;53.020;6.738;2023-04-01T23:46:45;5.30;99.90
59075;DHT22;44860;53.020;6.738;2023-04-01T23:49:41;5.30;99.90
59075;DHT22;44860;53.020;6.738;2023-04-01T23:54:56;5.20;99.90
59075;DHT22;44860;53.020;6.738;2023-04-01T23:57:30;5.20;99.90
